Time;durP1;ratioP1;P1;durP2;ratioP2;P2;SDS_P1;SDS_P2;PMS_P1;PMS_P2;Temp;Humidity;BMP_temperature;BMP_pressure;BME280_temperature;BME280_humidity;BME280_pressure;Samples;Min_cycle;Max_cycle;Signal;HPM_P1;HPM_P2
2023/08/14 00:02:22;;;;;;;17.50;6.43;;;;;;;15.60;100.00;101457.31;5073447;28;20059;-65
2023/08/14 00:04:48;;;;;;;19.58;7.20;;;;;;;15.53;100.00;101458.25;5073462;28;20032;-65
2023/08/14 00:07:13;;;;;;;19.40;7.13;;;;;;;15.46;100.00;101457.41;5073197;28;20084;-65
2023/08/14 00:09:39;;;;;;;18.05;6.40;;;;;;;15.45;100.00;101453.00;5073321;28;20111;-64
2023/08/14 00:12:05;;;;;;;18.13;6.50;;;;;;;15.47;100.00;101455.63;5073074;28;20032;-65
2023/08/14 00:14:30;;;;;;;19.35;6.60;;;;;;;15.52;100.00;101462.72;5073255;28;20552;-64
2023/08/14 00:16:56;;;;;;;19.35;6.82;;;;;;;15.44;100.00;101456.53;5073234;28;20052;-67
2023/08/14 00:19:21;;;;;;;18.45;6.40;;;;;;;15.36;100.00;101463.69;5073271;28;20581;-64
2023/08/14 00:21:46;;;;;;;18.58;6.68;;;;;;;15.34;100.00;101458.34;5073398;28;20115;-65
2023/08/14 00:24:12;;;;;;;19.92;6.60;;;;;;;15.23;100.00;101451.31;5073199;28;20475;-64
2023/08/14 00:26:37;;;;;;;18.25;7.00;;;;;;;15.16;100.00;101448.69;5072741;28;20464;-65
2023/08/14 00:29:04;;;;;;;19.90;6.88;;;;;;;15.22;100.00;101457.53;5073117;28;20033;-65
2023/08/14 00:31:29;;;;;;;19.20;8.23;;;;;;;15.21;100.00;101446.00;5072888;28;20029;-64
2023/08/14 00:33:54;;;;;;;19.17;6.75;;;;;;;15.11;100.00;101441.63;5072918;28;20463;-67
2023/08/14 00:36:20;;;;;;;19.50;7.30;;;;;;;15.06;100.00;101440.78;5072965;28;20394;-64
2023/08/14 00:38:45;;;;;;;18.13;6.53;;;;;;;14.97;100.00;101447.03;5072758;28;20083;-64
2023/08/14 00:41:11;;;;;;;18.52;6.40;;;;;;;14.89;100.00;101454.16;5072786;28;20047;-64
2023/08/14 00:43:36;;;;;;;20.02;6.80;;;;;;;14.90;100.00;101450.59;5072678;28;20024;-65
2023/08/14 00:46:03;;;;;;;19.33;7.25;;;;;;;15.02;100.00;101455.00;5072786;28;20031;-64
2023/08/14 00:48:29;;;;;;;18.55;7.00;;;;;;;15.02;100.00;101444.34;5072561;28;20033;-64
2023/08/14 00:50:55;;;;;;;18.92;7.38;;;;;;;14.99;100.00;101445.22;5073178;28;20029;-64
2023/08/14 00:53:24;;;;;;;19.58;7.15;;;;;;;15.04;100.00;101446.09;5072663;28;20029;-64
2023/08/14 00:55:49;;;;;;;19.08;7.78;;;;;;;15.09;100.00;101446.09;5068845;28;20074;-66
2023/08/14 00:58:15;;;;;;;22.75;8.50;;;;;;;15.11;100.00;101442.50;5072846;28;20040;-64
2023/08/14 01:00:42;;;;;;;20.98;8.10;;;;;;;15.06;100.00;101446.09;5072595;28;20033;-65
2023/08/14 01:03:08;;;;;;;20.88;8.48;;;;;;;14.98;100.00;101435.47;5072560;28;20060;-65
2023/08/14 01:05:33;;;;;;;20.75;7.88;;;;;;;14.94;100.00;101434.63;5072758;28;20458;-66
2023/08/14 01:07:59;;;;;;;20.23;8.15;;;;;;;14.95;100.00;101430.16;5072677;28;20036;-66
2023/08/14 01:10:51;;;;;;;19.85;7.57;;;;;;;14.87;100.00;101431.97;5072710;28;20053;-65
2023/08/14 01:13:24;;;;;;;20.17;8.40;;;;;;;14.85;100.00;101425.78;5071216;28;20115;-65
2023/08/14 01:15:55;;;;;;;20.55;8.18;;;;;;;14.76;100.00;101427.56;5068761;28;20031;-65
2023/08/14 01:18:24;;;;;;;19.88;8.25;;;;;;;14.79;100.00;101421.34;5068907;28;20024;-65
2023/08/14 01:21:12;;;;;;;20.45;8.07;;;;;;;14.87;100.00;101421.31;5068546;28;20032;-65
2023/08/14 01:23:42;;;;;;;21.67;8.55;;;;;;;14.93;100.00;101422.19;5071006;28;20100;-65
2023/08/14 01:26:08;;;;;;;19.95;7.90;;;;;;;14.88;100.00;101421.34;5072089;28;20467;-64
2023/08/14 01:28:33;;;;;;;20.63;7.72;;;;;;;14.81;100.00;101408.94;5072489;28;20043;-64
2023/08/14 01:30:59;;;;;;;20.42;8.15;;;;;;;14.86;100.00;101409.78;5072287;28;20452;-65
2023/08/14 01:33:24;;;;;;;20.08;8.20;;;;;;;14.81;100.00;101409.81;5071045;28;20081;-64
2023/08/14 01:35:56;;;;;;;21.67;8.43;;;;;;;14.72;100.00;101398.31;5072473;28;20487;-65
2023/08/14 01:38:49;;;;;;;21.35;8.13;;;;;;;14.69;100.00;101409.84;5068633;28;20028;-65
2023/08/14 01:41:41;;;;;;;20.35;8.30;;;;;;;14.60;100.00;101415.19;5071852;28;20024;-65
2023/08/14 01:44:09;;;;;;;21.10;8.27;;;;;;;14.56;100.00;101406.34;5070777;28;20025;-65
2023/08/14 01:46:35;;;;;;;21.75;8.65;;;;;;;14.55;100.00;101406.34;5072127;28;20037;-65
2023/08/14 01:49:02;;;;;;;19.40;8.18;;;;;;;14.54;100.00;101389.47;5071931;28;20084;-64
2023/08/14 01:51:28;;;;;;;20.15;8.38;;;;;;;14.61;100.00;101393.03;5072209;28;20060;-64
2023/08/14 01:53:55;;;;;;;20.33;7.88;;;;;;;14.61;100.00;101380.63;5072372;28;20452;-64
2023/08/14 01:56:20;;;;;;;19.42;8.07;;;;;;;14.63;100.00;101389.50;5073592;28;20115;-65
2023/08/14 01:58:45;;;;;;;21.08;7.63;;;;;;;14.60;100.00;101384.13;5075811;28;20112;-65
2023/08/14 02:01:11;;;;;;;21.10;8.25;;;;;;;14.68;100.00;101376.19;5075658;28;20103;-65
2023/08/14 02:03:36;;;;;;;20.63;8.18;;;;;;;14.64;100.00;101375.28;5075520;28;20031;-65
2023/08/14 02:06:01;;;;;;;21.90;8.90;;;;;;;14.62;100.00;101384.16;5075603;28;20025;-65
2023/08/14 02:08:27;;;;;;;22.85;9.85;;;;;;;14.57;100.00;101377.94;5075446;28;20025;-64
2023/08/14 02:10:52;;;;;;;24.13;10.63;;;;;;;14.51;100.00;101372.66;5075597;28;20033;-64
2023/08/14 02:13:17;;;;;;;22.52;9.63;;;;;;;14.47;100.00;101377.09;5075438;28;20116;-64
2023/08/14 02:15:46;;;;;;;22.25;10.30;;;;;;;14.47;100.00;101374.44;5075311;28;20036;-68
2023/08/14 02:18:13;;;;;;;21.20;9.40;;;;;;;14.38;100.00;101377.13;5075515;28;20471;-64
2023/08/14 02:20:49;;;;;;;21.77;9.10;;;;;;;14.45;100.00;101378.88;5074006;28;20021;-64
2023/08/14 02:23:14;;;;;;;20.38;8.75;;;;;;;14.50;100.00;101370.88;5075153;28;20050;-64
2023/08/14 02:25:41;;;;;;;22.25;9.45;;;;;;;14.62;100.00;101365.53;5075101;28;20032;-68
2023/08/14 02:28:06;;;;;;;22.00;9.57;;;;;;;14.63;100.00;101365.56;5075196;28;20029;-65
2023/08/14 02:30:32;;;;;;;21.05;9.00;;;;;;;14.61;100.00;101363.75;5075327;28;20032;-65
2023/08/14 02:32:57;;;;;;;20.27;8.80;;;;;;;14.56;100.00;101357.56;5075051;28;20111;-65
2023/08/14 02:35:22;;;;;;;21.25;9.23;;;;;;;14.53;100.00;101355.78;5075219;28;20070;-64
2023/08/14 02:37:48;;;;;;;22.08;9.15;;;;;;;14.39;100.00;101352.31;5073619;28;20056;-64
2023/08/14 02:40:13;;;;;;;21.73;9.68;;;;;;;14.36;100.00;101358.53;5075064;28;20040;-65
2023/08/14 02:42:38;;;;;;;22.08;9.38;;;;;;;14.28;100.00;101355.91;5075098;28;20033;-65
2023/08/14 02:45:04;;;;;;;21.40;9.40;;;;;;;14.24;100.00;101363.84;5074801;28;20025;-64
2023/08/14 02:47:30;;;;;;;20.13;9.10;;;;;;;14.24;100.00;101351.47;5074889;28;20601;-64
2023/08/14 02:49:55;;;;;;;22.08;9.45;;;;;;;14.17;100.00;101354.13;5074454;28;20132;-65
2023/08/14 02:52:21;;;;;;;21.50;9.77;;;;;;;14.15;100.00;101356.78;5074727;28;20032;-65
2023/08/14 02:54:46;;;;;;;21.65;9.65;;;;;;;14.08;100.00;101355.94;5074801;28;20029;-66
2023/08/14 02:57:11;;;;;;;22.05;9.50;;;;;;;14.06;100.00;101349.72;5074592;28;20411;-64
2023/08/14 02:59:37;;;;;;;21.23;9.98;;;;;;;14.12;100.00;101355.06;5074469;28;20064;-66
2023/08/14 03:02:02;;;;;;;23.05;10.02;;;;;;;14.05;100.00;101352.38;5074669;28;20078;-65
2023/08/14 03:04:29;;;;;;;23.50;11.15;;;;;;;14.04;100.00;101348.84;5074370;28;20032;-68
2023/08/14 03:06:55;;;;;;;21.85;11.00;;;;;;;14.04;100.00;101350.63;5089757;28;20115;-65
2023/08/14 03:09:20;;;;;;;22.23;10.18;;;;;;;13.99;100.00;101352.41;5074614;28;20166;-65
2023/08/14 03:11:46;;;;;;;21.55;9.45;;;;;;;13.94;100.00;101355.94;5074209;28;20032;-64
2023/08/14 03:14:11;;;;;;;20.85;9.90;;;;;;;13.94;100.00;101347.97;5074223;28;20413;-64
2023/08/14 03:16:36;;;;;;;22.38;10.10;;;;;;;13.94;100.00;101360.38;5074397;28;20036;-65
2023/08/14 03:19:02;;;;;;;22.13;10.50;;;;;;;13.91;100.00;101363.94;5074428;28;20029;-64
2023/08/14 03:21:27;;;;;;;21.83;9.63;;;;;;;13.88;100.00;101361.28;5074249;28;20029;-66
2023/08/14 03:23:53;;;;;;;21.45;9.65;;;;;;;13.84;100.00;101364.81;5074045;28;20024;-66
2023/08/14 03:26:18;;;;;;;19.73;8.90;;;;;;;13.82;100.00;101363.03;5073826;28;20060;-65
2023/08/14 03:28:43;;;;;;;21.35;9.13;;;;;;;13.73;100.00;101355.97;5074019;28;20484;-71
2023/08/14 03:31:09;;;;;;;19.83;8.68;;;;;;;13.64;100.00;101350.66;5074166;28;20474;-64
2023/08/14 03:33:35;;;;;;;20.65;9.18;;;;;;;13.64;100.00;101350.66;5073842;28;20024;-64
2023/08/14 03:36:00;;;;;;;22.50;9.80;;;;;;;13.63;100.00;101348.88;5074050;28;20032;-65
2023/08/14 03:38:25;;;;;;;20.27;8.48;;;;;;;13.64;100.00;101353.31;5073677;28;20033;-65
2023/08/14 03:40:51;;;;;;;20.85;8.95;;;;;;;13.65;100.00;101358.63;5073787;28;20029;-66
2023/08/14 03:43:16;;;;;;;21.05;9.35;;;;;;;13.66;100.00;101352.44;5073804;28;20029;-65
2023/08/14 03:45:41;;;;;;;19.73;8.70;;;;;;;13.62;100.00;101355.09;5073554;28;20036;-67
2023/08/14 03:48:07;;;;;;;19.40;8.38;;;;;;;13.55;100.00;101352.44;5072205;28;20532;-66
2023/08/14 03:50:32;;;;;;;20.52;8.80;;;;;;;13.56;100.00;101356.88;5073508;28;20044;-65
2023/08/14 03:52:57;;;;;;;21.88;9.60;;;;;;;13.54;100.00;101356.00;5073446;28;20035;-65
2023/08/14 03:55:23;;;;;;;23.17;10.70;;;;;;;13.55;100.00;101360.41;5073621;28;20111;-66
2023/08/14 03:57:48;;;;;;;22.33;9.23;;;;;;;13.52;100.00;101357.75;5073352;28;20029;-64
2023/08/14 04:00:13;;;;;;;20.80;8.88;;;;;;;13.50;100.00;101348.00;5073272;28;20048;-68
2023/08/14 04:02:39;;;;;;;22.23;9.80;;;;;;;13.49;100.00;101354.22;5073434;28;20029;-65
2023/08/14 04:05:05;;;;;;;20.25;9.18;;;;;;;13.42;100.00;101351.53;5073222;28;20071;-65
2023/08/14 04:07:30;;;;;;;22.92;9.63;;;;;;;13.39;100.00;101355.97;5073504;28;20027;-64
2023/08/14 04:09:56;;;;;;;22.88;9.40;;;;;;;13.38;100.00;101355.09;5073219;28;20581;-64
2023/08/14 04:12:21;;;;;;;22.58;9.30;;;;;;;13.35;100.00;101352.44;5073169;28;20047;-65
2023/08/14 04:14:49;;;;;;;21.48;9.30;;;;;;;13.26;100.00;101344.41;5072987;28;20021;-65
2023/08/14 04:17:14;;;;;;;21.40;9.02;;;;;;;13.30;100.00;101340.00;5073292;28;20036;-65
2023/08/14 04:19:39;;;;;;;21.90;9.30;;;;;;;13.31;100.00;101342.66;5072646;28;20032;-67
2023/08/14 04:22:05;;;;;;;22.20;9.15;;;;;;;13.33;100.00;101340.88;5072959;28;20033;-66
2023/08/14 04:24:30;;;;;;;21.23;9.45;;;;;;;13.34;100.00;101332.06;5073444;28;20073;-66
2023/08/14 04:26:56;;;;;;;21.60;9.57;;;;;;;13.32;100.00;101333.78;5072817;28;20088;-65
2023/08/14 04:29:21;;;;;;;21.95;9.50;;;;;;;13.31;100.00;101324.06;5072862;28;20066;-65
2023/08/14 04:31:46;;;;;;;21.33;9.27;;;;;;;13.34;100.00;101325.81;5073033;28;20046;-64
2023/08/14 04:34:12;;;;;;;21.67;9.20;;;;;;;13.39;100.00;101327.63;5072831;28;20041;-64
2023/08/14 04:36:37;;;;;;;21.15;9.30;;;;;;;13.38;100.00;101331.19;5073020;28;20040;-65
2023/08/14 04:39:04;;;;;;;21.23;9.02;;;;;;;13.47;100.00;101327.66;5072770;28;20036;-65
2023/08/14 04:41:30;;;;;;;21.15;9.38;;;;;;;13.50;100.00;101321.44;5071459;28;20040;-65
2023/08/14 04:43:56;;;;;;;21.23;9.23;;;;;;;13.54;100.00;101323.22;5073001;28;20475;-65
2023/08/14 04:46:32;;;;;;;21.88;9.50;;;;;;;13.60;100.00;101321.44;5072723;28;20104;-66
2023/08/14 04:48:58;;;;;;;21.77;9.70;;;;;;;13.66;100.00;101314.34;5069367;28;20064;-64
2023/08/14 04:51:24;;;;;;;22.00;9.23;;;;;;;13.73;100.00;101321.44;5072729;28;20566;-66
2023/08/14 04:53:49;;;;;;;21.60;9.75;;;;;;;13.77;100.00;101320.53;5072883;28;20036;-65
2023/08/14 04:56:15;;;;;;;21.10;9.32;;;;;;;13.80;100.00;101317.00;5072891;28;20098;-65
2023/08/14 04:58:40;;;;;;;22.80;10.90;;;;;;;13.83;100.00;101306.38;5072760;28;20043;-65
2023/08/14 05:01:05;;;;;;;22.52;11.25;;;;;;;13.85;100.00;101305.47;5072801;28;20027;-66
2023/08/14 05:03:31;;;;;;;23.40;10.90;;;;;;;13.94;100.00;101297.47;5072535;28;20082;-64
2023/08/14 05:05:56;;;;;;;22.63;11.10;;;;;;;13.97;100.00;101301.91;5072704;28;20040;-65
2023/08/14 05:08:21;;;;;;;22.05;11.32;;;;;;;14.07;100.00;101308.09;5072521;28;20052;-66
2023/08/14 05:10:51;;;;;;;22.52;11.18;;;;;;;14.13;100.00;101297.44;5072426;28;20060;-66
2023/08/14 05:13:17;;;;;;;22.88;13.05;;;;;;;14.26;100.00;101296.50;5072619;28;20383;-65
2023/08/14 05:15:42;;;;;;;23.40;12.98;;;;;;;14.38;100.00;101292.03;5072400;28;20021;-64
2023/08/14 05:18:07;;;;;;;24.15;12.32;;;;;;;14.45;100.00;101291.97;5072396;28;20028;-65
2023/08/14 05:20:34;;;;;;;22.63;11.57;;;;;;;14.57;100.00;101295.47;5072651;28;20031;-65
2023/08/14 05:22:59;;;;;;;22.80;11.32;;;;;;;14.62;100.00;101291.03;5072293;28;20033;-64
2023/08/14 05:25:25;;;;;;;23.70;11.52;;;;;;;14.74;100.00;101298.09;5072475;28;20440;-65
2023/08/14 05:27:50;;;;;;;21.88;10.98;;;;;;;14.86;100.00;101299.78;5072464;28;20028;-65
2023/08/14 05:30:15;;;;;;;21.75;11.15;;;;;;;14.94;100.00;101288.22;5072226;28;20045;-64
2023/08/14 05:32:41;;;;;;;21.50;11.15;;;;;;;15.05;100.00;101304.09;5076077;28;20028;-65
2023/08/14 05:35:07;;;;;;;25.08;11.60;;;;;;;15.12;100.00;101303.16;5076319;28;20069;-64
2023/08/14 05:37:32;;;;;;;24.65;11.93;;;;;;;15.17;100.00;101308.44;5076516;28;20025;-65
2023/08/14 05:39:58;;;;;;;23.88;11.55;;;;;;;15.24;100.00;101311.97;5076242;28;20032;-64
2023/08/14 05:42:23;;;;;;;24.60;12.35;;;;;;;15.27;100.00;101312.81;5076221;28;20028;-67
2023/08/14 05:44:48;;;;;;;23.63;11.55;;;;;;;15.34;100.00;101317.19;5075971;28;20687;-65
2023/08/14 05:47:14;;;;;;;22.00;11.32;;;;;;;15.36;100.00;101316.31;5076068;28;20085;-66
2023/08/14 05:49:39;;;;;;;22.63;12.02;;;;;;;15.41;100.00;101314.50;5075856;28;20060;-65
2023/08/14 05:52:05;;;;;;;25.13;13.00;;;;;;;15.45;100.00;101318.88;5075952;28;20074;-66
2023/08/14 05:54:30;;;;;;;25.52;13.30;;;;;;;15.48;100.00;101321.53;5075785;28;20022;-67
2023/08/14 05:56:55;;;;;;;23.48;12.68;;;;;;;15.51;100.00;101334.84;5074177;28;20024;-68
2023/08/14 05:59:21;;;;;;;25.50;13.00;;;;;;;15.58;100.00;101335.66;5075627;28;20025;-70
2023/08/14 06:01:46;;;;;;;23.02;13.07;;;;;;;15.63;100.00;101334.72;5075761;28;20063;-64
2023/08/14 06:04:12;;;;;;;24.17;13.05;;;;;;;15.63;100.00;101331.19;5075148;28;20050;-67
2023/08/14 06:06:37;;;;;;;24.30;13.23;;;;;;;15.66;100.00;101337.34;5070743;28;20016;-65
2023/08/14 06:09:03;;;;;;;25.42;13.10;;;;;;;15.75;100.00;101346.16;5075555;28;20035;-64
2023/08/14 06:11:28;;;;;;;23.75;13.35;;;;;;;15.80;100.00;101352.34;5075416;28;20024;-68
2023/08/14 06:13:53;;;;;;;25.63;13.40;;;;;;;15.88;100.00;101355.84;5074892;28;20503;-68
2023/08/14 06:16:19;;;;;;;24.80;13.65;;;;;;;15.93;100.00;101354.03;5075541;28;20029;-67
2023/08/14 06:18:44;;;;;;;23.85;12.93;;;;;;;16.00;100.00;101347.75;5075306;28;20064;-71
2023/08/14 06:21:10;;;;;;;24.42;13.77;;;;;;;16.02;100.00;101340.59;5075472;28;20491;-66
2023/08/14 06:23:35;;;;;;;24.48;12.20;;;;;;;16.11;100.00;101336.09;5075202;28;20112;-67
2023/08/14 06:26:00;;;;;;;24.33;12.57;;;;;;;16.19;100.00;101336.84;5075040;28;20093;-70
2023/08/14 06:28:26;;;;;;;25.10;13.07;;;;;;;16.28;100.00;101323.44;5075436;28;20107;-69
2023/08/14 06:30:51;;;;;;;24.27;13.13;;;;;;;16.47;100.00;101324.09;5075314;28;20025;-69
2023/08/14 06:33:17;;;;;;;22.92;12.52;;;;;;;16.67;100.00;101323.84;5075006;28;20044;-70
2023/08/14 06:35:42;;;;;;;23.63;12.30;;;;;;;16.92;100.00;101322.63;5075271;28;20535;-69
2023/08/14 06:38:08;;;;;;;22.45;11.95;;;;;;;17.11;100.00;101316.13;5074967;28;20024;-69
2023/08/14 06:40:33;;;;;;;22.85;11.27;;;;;;;17.31;100.00;101321.13;5074838;28;20028;-69
2023/08/14 06:42:59;;;;;;;21.77;10.90;;;;;;;17.43;100.00;101323.63;5074545;28;20115;-70
2023/08/14 06:45:24;;;;;;;22.02;11.18;;;;;;;17.43;100.00;101317.41;5074509;28;20090;-71
2023/08/14 06:47:50;;;;;;;23.38;11.70;;;;;;;17.40;100.00;101312.09;5074308;28;20029;-66
2023/08/14 06:50:15;;;;;;;22.45;11.07;;;;;;;17.41;100.00;101314.72;5074641;28;20059;-69
2023/08/14 06:52:41;;;;;;;22.58;10.95;;;;;;;17.49;100.00;101319.97;5074508;28;20431;-67
2023/08/14 06:55:06;;;;;;;23.52;10.43;;;;;;;17.66;100.00;101319.66;5074327;28;20121;-69
2023/08/14 06:57:32;;;;;;;21.55;10.70;;;;;;;17.97;100.00;101311.13;5074479;28;20050;-67
2023/08/14 06:59:57;;;;;;;21.85;10.05;;;;;;;18.34;100.00;101307.72;5074476;28;20067;-66
2023/08/14 07:02:23;;;;;;;22.10;9.13;;;;;;;18.68;100.00;101306.13;5070707;28;20052;-70
2023/08/14 07:04:48;;;;;;;21.67;9.05;;;;;;;18.92;100.00;101307.41;5074204;28;20025;-71
2023/08/14 07:07:14;;;;;;;21.27;8.00;;;;;;;19.04;100.00;101307.09;5069558;28;20048;-70
2023/08/14 07:09:40;;;;;;;20.80;8.00;;;;;;;19.16;100.00;101301.47;5074218;28;20032;-69
2023/08/14 07:12:06;;;;;;;20.52;7.15;;;;;;;19.19;100.00;101300.47;5074208;28;20036;-67
2023/08/14 07:14:32;;;;;;;21.17;7.60;;;;;;;19.11;100.00;101298.00;5070338;28;20134;-70
2023/08/14 07:16:57;;;;;;;18.80;6.75;;;;;;;19.05;100.00;101303.50;5073045;28;20036;-72
2023/08/14 07:19:23;;;;;;;21.45;7.60;;;;;;;18.97;100.00;101293.00;5073319;28;20035;-73
2023/08/14 07:21:48;;;;;;;19.38;6.18;;;;;;;18.92;100.00;101294.00;5073976;28;20025;-72
2023/08/14 07:24:13;;;;;;;19.00;5.97;;;;;;;18.85;100.00;101289.69;5073968;28;20063;-73
2023/08/14 07:26:40;;;;;;;22.10;5.68;;;;;;;18.76;100.00;101291.63;5073955;28;20075;-70
2023/08/14 07:29:06;;;;;;;19.55;6.10;;;;;;;18.73;100.00;101298.88;5073479;28;20028;-64
2023/08/14 07:31:31;;;;;;;19.42;6.28;;;;;;;18.71;100.00;101301.59;5073964;28;20025;-68
2023/08/14 07:33:56;;;;;;;20.17;6.32;;;;;;;18.60;100.00;101311.66;5073684;28;20031;-66
2023/08/14 07:36:22;;;;;;;20.15;6.80;;;;;;;18.44;100.00;101320.00;5073548;28;20107;-64
2023/08/14 07:38:47;;;;;;;19.38;6.50;;;;;;;18.32;100.00;101319.34;5073766;28;20040;-64
2023/08/14 07:41:12;;;;;;;20.63;6.72;;;;;;;18.35;100.00;101322.88;5072143;28;20463;-64
2023/08/14 07:43:38;;;;;;;18.13;5.75;;;;;;;18.35;100.00;101333.56;5073587;28;20043;-65
2023/08/14 07:46:03;;;;;;;18.42;5.90;;;;;;;18.38;100.00;101324.59;5073497;28;20081;-64
2023/08/14 07:48:28;;;;;;;21.38;6.32;;;;;;;18.47;100.00;101324.41;5073400;28;20498;-63
2023/08/14 07:50:54;;;;;;;17.83;5.32;;;;;;;18.56;100.00;101312.63;5073641;28;20482;-64
2023/08/14 07:53:20;;;;;;;18.00;5.60;;;;;;;18.61;100.00;101308.03;5073035;28;20059;-64
2023/08/14 07:55:48;;;;;;;18.98;5.40;;;;;;;18.67;100.00;101309.69;5073273;28;20075;-64
2023/08/14 07:58:14;;;;;;;18.77;5.88;;;;;;;18.71;100.00;101314.97;5073770;28;20376;-67
2023/08/14 08:00:40;;;;;;;19.05;5.20;;;;;;;18.66;100.00;101306.16;5073471;28;20419;-65
2023/08/14 08:03:05;;;;;;;17.17;5.18;;;;;;;18.66;100.00;101303.47;5073209;28;20028;-65
2023/08/14 08:05:31;;;;;;;17.15;5.00;;;;;;;18.79;100.00;101312.13;5073463;28;20047;-65
2023/08/14 08:07:56;;;;;;;17.17;4.80;;;;;;;18.92;100.00;101320.78;5073406;28;20032;-64
2023/08/14 08:10:22;;;;;;;16.60;4.63;;;;;;;19.02;100.00;101313.41;5073052;28;20055;-64
2023/08/14 08:12:47;;;;;;;16.63;4.30;;;;;;;19.09;100.00;101313.25;5073164;28;20021;-64
2023/08/14 08:15:12;;;;;;;18.20;4.28;;;;;;;19.21;100.00;101316.53;5073082;28;20060;-65
2023/08/14 08:17:38;;;;;;;17.20;4.25;;;;;;;19.34;100.00;101308.16;5073001;28;20032;-65
2023/08/14 08:20:05;;;;;;;18.48;4.70;;;;;;;19.67;100.00;101300.19;5073145;28;20040;-64
2023/08/14 08:22:30;;;;;;;18.00;4.55;;;;;;;20.41;100.00;101299.06;5070373;28;20028;-67
2023/08/14 08:24:56;;;;;;;15.07;3.97;;;;;;;21.24;100.00;101297.38;5070761;28;20091;-67
2023/08/14 08:27:21;;;;;;;14.75;3.63;;;;;;;22.03;100.00;101296.50;5064687;28;20383;-71
2023/08/14 08:29:46;;;;;;;15.10;3.58;;;;;;;22.69;100.00;101298.53;5060256;28;20082;-70
2023/08/14 08:32:12;;;;;;;14.57;3.33;;;;;;;23.17;100.00;101297.56;5065373;28;20028;-69
2023/08/14 08:34:37;;;;;;;11.50;3.13;;;;;;;23.62;100.00;101292.97;5064938;28;20087;-73
2023/08/14 08:37:02;;;;;;;14.25;3.20;;;;;;;23.81;100.00;101296.63;5072612;28;20016;-73
2023/08/14 08:39:28;;;;;;;13.40;3.08;;;;;;;24.47;100.00;101291.91;5072654;28;20032;-70
2023/08/14 08:41:56;;;;;;;11.93;3.50;;;;;;;24.69;100.00;101287.25;5072704;28;20036;-73
2023/08/14 08:44:26;;;;;;;9.63;2.60;;;;;;;25.14;100.00;101276.13;5072389;28;20107;-70
2023/08/14 08:46:53;;;;;;;12.52;2.75;;;;;;;25.47;100.00;101289.78;5072680;28;20024;-69
2023/08/14 08:49:18;;;;;;;9.73;2.70;;;;;;;25.27;100.00;101287.19;5072306;28;20507;-71
2023/08/14 08:51:45;;;;;;;9.95;2.78;;;;;;;25.71;100.00;101290.34;5072359;28;20040;-70
2023/08/14 08:54:14;;;;;;;9.55;2.80;;;;;;;26.16;100.00;101289.84;5072708;28;20028;-73
2023/08/14 08:56:40;;;;;;;10.82;2.80;;;;;;;26.03;100.00;101276.94;5072390;28;20115;-71
2023/08/14 08:59:06;;;;;;;13.90;2.90;;;;;;;26.32;100.00;101279.91;5072345;28;20020;-69
2023/08/14 09:01:31;;;;;;;10.98;2.50;;;;;;;26.23;100.00;101280.44;5072040;28;20037;-71
2023/08/14 09:03:57;;;;;;;12.02;2.70;;;;;;;26.22;100.00;101275.97;5072323;28;20032;-72
2023/08/14 09:06:22;;;;;;;11.43;2.70;;;;;;;26.57;100.00;101275.84;5076095;28;20029;-71
2023/08/14 09:08:47;;;;;;;8.13;2.45;;;;;;;26.85;99.61;101283.28;5076517;28;20027;-64
2023/08/14 09:11:13;;;;;;;10.45;2.80;;;;;;;27.40;85.76;101290.06;5076408;28;20105;-69
2023/08/14 09:13:38;;;;;;;10.48;2.80;;;;;;;27.39;92.82;101288.34;5076335;28;20025;-67
2023/08/14 09:16:04;;;;;;;11.23;2.70;;;;;;;26.89;85.18;101276.72;5072484;28;20040;-68
2023/08/14 09:18:31;;;;;;;11.68;2.67;;;;;;;25.79;100.00;101278.22;5076330;28;20028;-70
2023/08/14 09:20:57;;;;;;;10.50;2.63;;;;;;;24.88;100.00;101275.56;5076189;28;20100;-68
2023/08/14 09:23:22;;;;;;;11.55;2.50;;;;;;;24.89;100.00;101264.69;5076208;28;20036;-69
2023/08/14 09:25:49;;;;;;;14.32;3.00;;;;;;;25.54;100.00;101284.91;5068223;28;20025;-68
2023/08/14 09:28:16;;;;;;;8.23;2.40;;;;;;;26.22;96.37;101281.38;5069427;28;20028;-68
2023/08/14 09:30:43;;;;;;;11.10;2.70;;;;;;;26.96;88.84;101293.53;5074781;28;20029;-67
2023/08/14 09:33:10;;;;;;;11.20;2.67;;;;;;;27.13;76.10;101298.88;5072598;28;20371;-68
2023/08/14 09:35:37;;;;;;;14.43;3.40;;;;;;;26.87;74.01;101297.66;5071170;28;20060;-69
2023/08/14 09:38:03;;;;;;;13.55;2.70;;;;;;;26.61;70.43;101307.22;5076091;28;20036;-68
2023/08/14 09:40:29;;;;;;;12.88;2.72;;;;;;;26.88;75.26;101301.22;5075773;28;20033;-66
2023/08/14 09:42:56;;;;;;;12.13;2.70;;;;;;;27.13;74.95;101312.44;5075793;28;20054;-65
2023/08/14 09:45:23;;;;;;;11.82;2.75;;;;;;;26.97;71.37;101303.44;5075995;28;20546;-68
2023/08/14 09:47:50;;;;;;;10.52;2.60;;;;;;;26.88;74.65;101301.22;5075558;28;20055;-69
2023/08/14 09:50:15;;;;;;;11.40;2.70;;;;;;;27.41;67.18;101304.53;5075431;28;20047;-69
2023/08/14 09:52:42;;;;;;;12.23;2.60;;;;;;;27.47;61.45;101301.44;5075841;28;20029;-69
2023/08/14 09:55:09;;;;;;;9.27;2.45;;;;;;;26.72;63.89;101290.38;5075524;28;20021;-71
2023/08/14 09:57:34;;;;;;;14.38;2.70;;;;;;;27.03;62.23;101286.81;5075434;28;20434;-71
2023/08/14 10:00:00;;;;;;;11.40;2.60;;;;;;;28.37;64.77;101283.28;5075544;28;20152;-72
2023/08/14 10:02:26;;;;;;;11.07;2.47;;;;;;;28.97;57.89;101278.53;5072906;28;20028;-68
2023/08/14 10:04:53;;;;;;;10.10;2.60;;;;;;;28.73;60.26;101272.84;5075195;28;20115;-67
2023/08/14 10:07:20;;;;;;;11.80;2.75;;;;;;;29.43;58.96;101277.28;5074805;28;20570;-71
2023/08/14 10:09:56;;;;;;;10.02;2.60;;;;;;;30.10;54.44;101276.28;5075239;28;20063;-67
2023/08/14 10:12:27;;;;;;;14.07;2.88;;;;;;;29.35;55.71;101264.22;5072307;28;20021;-67
2023/08/14 10:15:07;;;;;;;10.20;2.70;;;;;;;29.94;54.82;101269.25;5075334;28;20468;-65
2023/08/14 10:17:36;;;;;;;9.95;2.42;;;;;;;30.01;50.96;101259.63;5074408;28;20282;-66
2023/08/14 10:20:03;;;;;;;12.48;2.70;;;;;;;29.70;50.97;101259.03;5074368;28;20472;-69
2023/08/14 10:22:30;;;;;;;13.13;2.75;;;;;;;30.28;53.26;101247.72;5072203;28;20028;-67
2023/08/14 10:24:56;;;;;;;11.35;2.65;;;;;;;30.00;52.10;101237.94;5064358;28;20029;-66
2023/08/14 10:27:22;;;;;;;9.18;2.40;;;;;;;30.64;50.05;101232.41;5071034;28;20478;-66
2023/08/14 10:29:48;;;;;;;10.65;2.50;;;;;;;31.44;50.82;101230.91;5074755;28;20044;-68
2023/08/14 10:32:14;;;;;;;10.75;2.45;;;;;;;33.12;45.40;101225.53;5074610;28;20040;-70
2023/08/14 10:34:40;;;;;;;11.75;2.58;;;;;;;33.30;42.05;101227.72;5074976;28;20073;-66
2023/08/14 10:37:05;;;;;;;13.82;2.50;;;;;;;32.76;44.53;101224.91;5075131;28;20033;-68
2023/08/14 10:39:34;;;;;;;10.65;2.50;;;;;;;31.99;43.91;101225.69;5074926;28;20429;-68
2023/08/14 10:42:00;;;;;;;10.00;2.60;;;;;;;31.56;44.78;101212.72;5070662;28;20071;-68
2023/08/14 10:44:37;;;;;;;9.55;2.50;;;;;;;31.43;47.46;101215.53;5074525;28;20071;-67
2023/08/14 10:47:06;;;;;;;10.00;2.70;;;;;;;31.82;45.47;101216.13;5071984;28;20028;-71
2023/08/14 10:49:45;;;;;;;9.80;2.53;;;;;;;32.50;46.93;101208.78;5074538;28;20091;-68
2023/08/14 10:52:15;;;;;;;11.00;2.60;;;;;;;33.32;41.40;101220.22;5073508;28;20103;-74
2023/08/14 10:54:43;;;;;;;11.85;2.55;;;;;;;33.66;41.10;101223.63;5073131;28;20025;-70
2023/08/14 10:57:12;;;;;;;11.35;2.70;;;;;;;34.12;40.70;101231.53;5071765;28;20040;-69
2023/08/14 10:59:40;;;;;;;11.95;2.78;;;;;;;34.40;42.03;101230.81;5074216;28;20024;-70
2023/08/14 11:02:13;;;;;;;10.88;2.53;;;;;;;35.16;41.75;101229.34;5074229;28;20029;-68
2023/08/14 11:05:19;;;;;;;13.70;2.60;;;;;;;36.38;39.67;101227.78;5074446;28;20070;-68
2023/08/14 11:08:02;;;;;;;11.65;2.60;;;;;;;34.90;38.94;101234.53;5073516;28;20067;-68